sensor_id;sensor_type;location;lat;lon;timestamp;P1;durP1;ratioP1;P2;durP2;ratioP2
47894;SDS011;33653;52.302;8.134;2023-04-25T00:00:23;4.28;;;2.40;;
47894;SDS011;33653;52.302;8.134;2023-04-25T00:02:52;3.88;;;2.58;;
47894;SDS011;33653;52.302;8.134;2023-04-25T00:05:20;5.75;;;2.38;;
47894;SDS011;33653;52.302;8.134;2023-04-25T00:07:50;6.32;;;3.28;;
47894;SDS011;33653;52.302;8.134;2023-04-25T00:10:19;6.78;;;3.53;;
47894;SDS011;33653;52.302;8.134;2023-04-25T00:12:48;10.15;;;3.50;;
47894;SDS011;33653;52.302;8.134;2023-04-25T00:15:16;4.38;;;2.58;;
47894;SDS011;33653;52.302;8.134;2023-04-25T00:17:48;5.07;;;2.63;;
47894;SDS011;33653;52.302;8.134;2023-04-25T00:20:16;5.85;;;2.88;;
47894;SDS011;33653;52.302;8.134;2023-04-25T00:22:45;4.05;;;2.58;;
47894;SDS011;33653;52.302;8.134;2023-04-25T00:25:14;3.33;;;2.55;;
47894;SDS011;33653;52.302;8.134;2023-04-25T00:27:43;7.95;;;3.40;;
47894;SDS011;33653;52.302;8.134;2023-04-25T00:30:12;9.45;;;4.18;;
47894;SDS011;33653;52.302;8.134;2023-04-25T00:32:41;3.97;;;2.85;;
47894;SDS011;33653;52.302;8.134;2023-04-25T00:35:10;7.47;;;3.08;;
47894;SDS011;33653;52.302;8.134;2023-04-25T00:37:38;5.13;;;3.45;;
47894;SDS011;33653;52.302;8.134;2023-04-25T00:40:06;5.43;;;2.88;;
47894;SDS011;33653;52.302;8.134;2023-04-25T00:42:35;4.70;;;3.05;;
47894;SDS011;33653;52.302;8.134;2023-04-25T00:45:05;4.45;;;3.08;;
47894;SDS011;33653;52.302;8.134;2023-04-25T00:47:34;14.13;;;2.80;;
47894;SDS011;33653;52.302;8.134;2023-04-25T00:50:03;5.38;;;2.70;;
47894;SDS011;33653;52.302;8.134;2023-04-25T00:52:32;5.35;;;2.13;;
47894;SDS011;33653;52.302;8.134;2023-04-25T00:55:01;3.00;;;2.58;;
47894;SDS011;33653;52.302;8.134;2023-04-25T00:57:31;5.50;;;2.58;;
47894;SDS011;33653;52.302;8.134;2023-04-25T01:00:00;4.30;;;2.20;;
47894;SDS011;33653;52.302;8.134;2023-04-25T01:02:30;3.67;;;2.30;;
47894;SDS011;33653;52.302;8.134;2023-04-25T01:04:59;5.05;;;2.20;;
47894;SDS011;33653;52.302;8.134;2023-04-25T01:07:27;7.78;;;2.78;;
47894;SDS011;33653;52.302;8.134;2023-04-25T01:09:56;3.58;;;1.98;;
47894;SDS011;33653;52.302;8.134;2023-04-25T01:12:24;6.93;;;2.47;;
47894;SDS011;33653;52.302;8.134;2023-04-25T01:14:53;10.82;;;2.20;;
47894;SDS011;33653;52.302;8.134;2023-04-25T01:17:21;5.60;;;2.55;;
47894;SDS011;33653;52.302;8.134;2023-04-25T01:19:53;4.90;;;2.30;;
47894;SDS011;33653;52.302;8.134;2023-04-25T01:22:21;9.23;;;3.22;;
47894;SDS011;33653;52.302;8.134;2023-04-25T01:24:51;4.97;;;1.85;;
47894;SDS011;33653;52.302;8.134;2023-04-25T01:27:19;7.15;;;3.10;;
47894;SDS011;33653;52.302;8.134;2023-04-25T01:29:49;5.30;;;1.98;;
47894;SDS011;33653;52.302;8.134;2023-04-25T01:32:18;11.75;;;2.22;;
47894;SDS011;33653;52.302;8.134;2023-04-25T01:34:47;2.25;;;2.00;;
47894;SDS011;33653;52.302;8.134;2023-04-25T01:37:16;3.03;;;1.88;;
47894;SDS011;33653;52.302;8.134;2023-04-25T01:39:44;6.78;;;2.78;;
47894;SDS011;33653;52.302;8.134;2023-04-25T01:42:13;6.70;;;2.55;;
47894;SDS011;33653;52.302;8.134;2023-04-25T01:44:42;3.28;;;1.92;;
47894;SDS011;33653;52.302;8.134;2023-04-25T01:47:10;4.95;;;2.13;;
47894;SDS011;33653;52.302;8.134;2023-04-25T01:49:38;7.93;;;2.42;;
47894;SDS011;33653;52.302;8.134;2023-04-25T01:52:07;11.50;;;3.75;;
47894;SDS011;33653;52.302;8.134;2023-04-25T01:54:36;11.40;;;3.13;;
47894;SDS011;33653;52.302;8.134;2023-04-25T01:57:04;8.43;;;3.15;;
47894;SDS011;33653;52.302;8.134;2023-04-25T01:59:34;6.28;;;2.72;;
47894;SDS011;33653;52.302;8.134;2023-04-25T02:02:16;5.18;;;1.90;;
47894;SDS011;33653;52.302;8.134;2023-04-25T02:04:44;10.52;;;3.42;;
47894;SDS011;33653;52.302;8.134;2023-04-25T02:07:13;8.77;;;3.03;;
47894;SDS011;33653;52.302;8.134;2023-04-25T02:09:48;10.45;;;2.63;;
47894;SDS011;33653;52.302;8.134;2023-04-25T02:12:18;9.75;;;3.13;;
47894;SDS011;33653;52.302;8.134;2023-04-25T02:15:09;13.43;;;3.00;;
47894;SDS011;33653;52.302;8.134;2023-04-25T02:18:00;16.75;;;3.35;;
47894;SDS011;33653;52.302;8.134;2023-04-25T02:20:29;8.85;;;2.58;;
47894;SDS011;33653;52.302;8.134;2023-04-25T02:22:58;5.40;;;2.35;;
47894;SDS011;33653;52.302;8.134;2023-04-25T02:25:29;7.80;;;2.47;;
47894;SDS011;33653;52.302;8.134;2023-04-25T02:27:57;12.80;;;2.67;;
47894;SDS011;33653;52.302;8.134;2023-04-25T02:30:26;10.25;;;3.03;;
47894;SDS011;33653;52.302;8.134;2023-04-25T02:32:54;7.80;;;2.30;;
47894;SDS011;33653;52.302;8.134;2023-04-25T02:35:23;4.90;;;2.53;;
47894;SDS011;33653;52.302;8.134;2023-04-25T02:37:54;4.28;;;2.30;;
47894;SDS011;33653;52.302;8.134;2023-04-25T02:40:22;8.45;;;3.40;;
47894;SDS011;33653;52.302;8.134;2023-04-25T02:42:50;12.48;;;4.70;;
47894;SDS011;33653;52.302;8.134;2023-04-25T02:45:19;14.10;;;3.33;;
47894;SDS011;33653;52.302;8.134;2023-04-25T02:47:47;15.00;;;3.67;;
47894;SDS011;33653;52.302;8.134;2023-04-25T02:50:18;9.45;;;2.53;;
47894;SDS011;33653;52.302;8.134;2023-04-25T02:52:47;10.63;;;2.85;;
47894;SDS011;33653;52.302;8.134;2023-04-25T02:55:20;8.25;;;2.67;;
47894;SDS011;33653;52.302;8.134;2023-04-25T02:57:50;6.57;;;2.42;;
47894;SDS011;33653;52.302;8.134;2023-04-25T03:00:37;11.73;;;3.15;;
47894;SDS011;33653;52.302;8.134;2023-04-25T03:03:05;5.45;;;2.53;;
47894;SDS011;33653;52.302;8.134;2023-04-25T03:05:33;6.75;;;2.25;;
47894;SDS011;33653;52.302;8.134;2023-04-25T03:08:02;15.32;;;2.90;;
47894;SDS011;33653;52.302;8.134;2023-04-25T03:10:32;16.98;;;3.85;;
47894;SDS011;33653;52.302;8.134;2023-04-25T03:13:05;5.80;;;2.47;;
47894;SDS011;33653;52.302;8.134;2023-04-25T03:15:34;7.50;;;2.72;;
47894;SDS011;33653;52.302;8.134;2023-04-25T03:18:03;5.68;;;2.22;;
47894;SDS011;33653;52.302;8.134;2023-04-25T03:20:31;6.80;;;2.13;;
47894;SDS011;33653;52.302;8.134;2023-04-25T03:22:59;7.80;;;2.58;;
47894;SDS011;33653;52.302;8.134;2023-04-25T03:25:29;8.60;;;2.50;;
47894;SDS011;33653;52.302;8.134;2023-04-25T03:27:57;9.20;;;2.03;;
47894;SDS011;33653;52.302;8.134;2023-04-25T03:30:26;5.22;;;3.33;;
47894;SDS011;33653;52.302;8.134;2023-04-25T03:32:54;8.52;;;3.40;;
47894;SDS011;33653;52.302;8.134;2023-04-25T03:35:23;10.88;;;2.50;;
47894;SDS011;33653;52.302;8.134;2023-04-25T03:37:52;11.43;;;2.63;;
47894;SDS011;33653;52.302;8.134;2023-04-25T03:40:26;9.63;;;2.55;;
47894;SDS011;33653;52.302;8.134;2023-04-25T03:43:17;3.47;;;1.85;;
47894;SDS011;33653;52.302;8.134;2023-04-25T03:45:53;4.13;;;2.55;;
47894;SDS011;33653;52.302;8.134;2023-04-25T03:48:23;3.50;;;1.90;;
47894;SDS011;33653;52.302;8.134;2023-04-25T03:50:54;7.15;;;2.58;;
47894;SDS011;33653;52.302;8.134;2023-04-25T03:53:22;5.35;;;2.90;;
47894;SDS011;33653;52.302;8.134;2023-04-25T03:56:11;18.85;;;2.92;;
47894;SDS011;33653;52.302;8.134;2023-04-25T03:58:40;9.55;;;2.63;;
47894;SDS011;33653;52.302;8.134;2023-04-25T04:01:08;9.68;;;2.85;;
47894;SDS011;33653;52.302;8.134;2023-04-25T04:03:38;5.57;;;2.17;;
47894;SDS011;33653;52.302;8.134;2023-04-25T04:06:07;6.55;;;2.25;;
47894;SDS011;33653;52.302;8.134;2023-04-25T04:08:39;5.07;;;2.60;;
47894;SDS011;33653;52.302;8.134;2023-04-25T04:11:09;3.72;;;2.40;;
47894;SDS011;33653;52.302;8.134;2023-04-25T04:13:37;9.40;;;3.00;;
47894;SDS011;33653;52.302;8.134;2023-04-25T04:16:07;3.08;;;2.20;;
47894;SDS011;33653;52.302;8.134;2023-04-25T04:18:35;7.22;;;3.42;;
47894;SDS011;33653;52.302;8.134;2023-04-25T04:21:04;14.40;;;3.33;;
47894;SDS011;33653;52.302;8.134;2023-04-25T04:23:35;4.13;;;2.55;;
47894;SDS011;33653;52.302;8.134;2023-04-25T04:26:13;10.90;;;2.75;;
47894;SDS011;33653;52.302;8.134;2023-04-25T04:28:53;3.28;;;2.15;;
47894;SDS011;33653;52.302;8.134;2023-04-25T04:31:40;8.38;;;3.00;;
47894;SDS011;33653;52.302;8.134;2023-04-25T04:34:10;4.68;;;2.85;;
47894;SDS011;33653;52.302;8.134;2023-04-25T04:36:40;5.05;;;3.03;;
47894;SDS011;33653;52.302;8.134;2023-04-25T04:39:08;6.00;;;2.22;;
47894;SDS011;33653;52.302;8.134;2023-04-25T04:41:48;18.33;;;2.90;;
47894;SDS011;33653;52.302;8.134;2023-04-25T04:44:48;17.65;;;2.92;;
47894;SDS011;33653;52.302;8.134;2023-04-25T04:47:25;7.85;;;2.78;;
47894;SDS011;33653;52.302;8.134;2023-04-25T04:50:14;11.10;;;2.78;;
47894;SDS011;33653;52.302;8.134;2023-04-25T04:53:03;3.08;;;2.00;;
47894;SDS011;33653;52.302;8.134;2023-04-25T04:55:35;9.18;;;2.15;;
47894;SDS011;33653;52.302;8.134;2023-04-25T04:58:29;10.80;;;3.40;;
47894;SDS011;33653;52.302;8.134;2023-04-25T05:01:07;7.20;;;2.53;;
47894;SDS011;33653;52.302;8.134;2023-04-25T05:03:54;5.70;;;2.45;;
47894;SDS011;33653;52.302;8.134;2023-04-25T05:07:47;14.40;;;3.30;;
47894;SDS011;33653;52.302;8.134;2023-04-25T05:10:27;13.00;;;3.40;;
47894;SDS011;33653;52.302;8.134;2023-04-25T05:13:21;7.45;;;2.20;;
47894;SDS011;33653;52.302;8.134;2023-04-25T05:16:07;7.75;;;2.92;;
47894;SDS011;33653;52.302;8.134;2023-04-25T05:18:48;12.80;;;2.10;;
47894;SDS011;33653;52.302;8.134;2023-04-25T05:21:28;7.00;;;2.60;;
47894;SDS011;33653;52.302;8.134;2023-04-25T05:24:08;5.47;;;2.00;;
47894;SDS011;33653;52.302;8.134;2023-04-25T05:26:56;9.82;;;2.97;;
47894;SDS011;33653;52.302;8.134;2023-04-25T05:29:42;15.05;;;3.30;;
47894;SDS011;33653;52.302;8.134;2023-04-25T05:32:25;6.38;;;3.35;;
47894;SDS011;33653;52.302;8.134;2023-04-25T05:34:54;14.02;;;3.55;;
47894;SDS011;33653;52.302;8.134;2023-04-25T05:37:26;10.77;;;3.40;;
47894;SDS011;33653;52.302;8.134;2023-04-25T05:39:58;12.38;;;3.97;;
47894;SDS011;33653;52.302;8.134;2023-04-25T05:42:50;6.93;;;3.20;;
47894;SDS011;33653;52.302;8.134;2023-04-25T05:45:37;3.95;;;3.08;;
47894;SDS011;33653;52.302;8.134;2023-04-25T05:48:24;11.90;;;3.92;;
47894;SDS011;33653;52.302;8.134;2023-04-25T05:51:09;14.13;;;3.63;;
47894;SDS011;33653;52.302;8.134;2023-04-25T05:53:46;8.50;;;3.45;;
47894;SDS011;33653;52.302;8.134;2023-04-25T05:56:15;12.88;;;3.33;;
47894;SDS011;33653;52.302;8.134;2023-04-25T05:58:45;6.50;;;3.45;;
47894;SDS011;33653;52.302;8.134;2023-04-25T06:01:14;18.05;;;3.72;;
47894;SDS011;33653;52.302;8.134;2023-04-25T06:03:44;14.20;;;2.40;;
47894;SDS011;33653;52.302;8.134;2023-04-25T06:06:12;9.30;;;2.60;;
47894;SDS011;33653;52.302;8.134;2023-04-25T06:08:41;10.00;;;3.10;;
47894;SDS011;33653;52.302;8.134;2023-04-25T06:11:11;4.75;;;2.33;;
47894;SDS011;33653;52.302;8.134;2023-04-25T06:13:39;6.85;;;2.88;;
47894;SDS011;33653;52.302;8.134;2023-04-25T06:16:08;6.97;;;2.58;;
47894;SDS011;33653;52.302;8.134;2023-04-25T06:18:36;4.43;;;2.10;;
47894;SDS011;33653;52.302;8.134;2023-04-25T06:21:05;12.88;;;2.75;;
47894;SDS011;33653;52.302;8.134;2023-04-25T06:23:33;5.53;;;2.33;;
47894;SDS011;33653;52.302;8.134;2023-04-25T06:26:04;16.40;;;2.83;;
47894;SDS011;33653;52.302;8.134;2023-04-25T06:28:35;7.65;;;2.80;;
47894;SDS011;33653;52.302;8.134;2023-04-25T06:31:04;9.82;;;2.60;;
47894;SDS011;33653;52.302;8.134;2023-04-25T06:33:34;6.22;;;2.80;;
47894;SDS011;33653;52.302;8.134;2023-04-25T06:36:03;8.57;;;2.13;;
47894;SDS011;33653;52.302;8.134;2023-04-25T06:38:32;7.03;;;2.17;;
47894;SDS011;33653;52.302;8.134;2023-04-25T06:41:01;9.20;;;2.28;;
47894;SDS011;33653;52.302;8.134;2023-04-25T06:43:34;7.05;;;2.28;;
47894;SDS011;33653;52.302;8.134;2023-04-25T06:46:28;5.57;;;2.08;;
47894;SDS011;33653;52.302;8.134;2023-04-25T06:48:58;8.07;;;2.60;;
47894;SDS011;33653;52.302;8.134;2023-04-25T06:51:27;11.55;;;2.50;;
47894;SDS011;33653;52.302;8.134;2023-04-25T06:53:57;5.38;;;2.47;;
47894;SDS011;33653;52.302;8.134;2023-04-25T06:56:31;7.10;;;1.95;;
47894;SDS011;33653;52.302;8.134;2023-04-25T06:59:07;11.27;;;2.38;;
47894;SDS011;33653;52.302;8.134;2023-04-25T07:01:38;4.47;;;2.15;;
47894;SDS011;33653;52.302;8.134;2023-04-25T07:04:24;9.95;;;2.53;;
47894;SDS011;33653;52.302;8.134;2023-04-25T07:06:56;6.85;;;2.25;;
47894;SDS011;33653;52.302;8.134;2023-04-25T07:09:32;7.25;;;2.28;;
47894;SDS011;33653;52.302;8.134;2023-04-25T07:12:01;6.32;;;1.85;;
47894;SDS011;33653;52.302;8.134;2023-04-25T07:14:30;10.48;;;2.45;;
47894;SDS011;33653;52.302;8.134;2023-04-25T07:17:00;5.32;;;2.17;;
47894;SDS011;33653;52.302;8.134;2023-04-25T07:19:32;2.55;;;1.77;;
47894;SDS011;33653;52.302;8.134;2023-04-25T07:22:02;3.45;;;1.90;;
47894;SDS011;33653;52.302;8.134;2023-04-25T07:24:32;8.95;;;1.80;;
47894;SDS011;33653;52.302;8.134;2023-04-25T07:27:00;11.35;;;2.10;;
47894;SDS011;33653;52.302;8.134;2023-04-25T07:29:52;4.18;;;1.90;;
47894;SDS011;33653;52.302;8.134;2023-04-25T07:32:22;3.83;;;2.05;;
47894;SDS011;33653;52.302;8.134;2023-04-25T07:34:51;4.50;;;1.80;;
47894;SDS011;33653;52.302;8.134;2023-04-25T07:37:19;2.97;;;1.48;;
47894;SDS011;33653;52.302;8.134;2023-04-25T07:40:02;3.25;;;1.63;;
47894;SDS011;33653;52.302;8.134;2023-04-25T07:42:31;3.85;;;1.60;;
47894;SDS011;33653;52.302;8.134;2023-04-25T07:45:01;8.05;;;1.73;;
47894;SDS011;33653;52.302;8.134;2023-04-25T07:47:30;4.68;;;1.92;;
47894;SDS011;33653;52.302;8.134;2023-04-25T07:49:58;6.15;;;1.63;;
47894;SDS011;33653;52.302;8.134;2023-04-25T07:52:28;7.70;;;1.85;;
47894;SDS011;33653;52.302;8.134;2023-04-25T07:55:04;1.83;;;1.52;;
47894;SDS011;33653;52.302;8.134;2023-04-25T07:57:42;5.32;;;1.70;;
47894;SDS011;33653;52.302;8.134;2023-04-25T08:00:11;2.80;;;1.48;;
47894;SDS011;33653;52.302;8.134;2023-04-25T08:02:42;2.33;;;1.58;;
47894;SDS011;33653;52.302;8.134;2023-04-25T08:05:15;6.43;;;2.67;;
47894;SDS011;33653;52.302;8.134;2023-04-25T08:07:53;2.13;;;1.92;;
47894;SDS011;33653;52.302;8.134;2023-04-25T08:10:22;3.58;;;1.33;;
47894;SDS011;33653;52.302;8.134;2023-04-25T08:12:51;3.40;;;1.42;;
47894;SDS011;33653;52.302;8.134;2023-04-25T08:15:22;3.17;;;1.50;;
47894;SDS011;33653;52.302;8.134;2023-04-25T08:17:51;5.82;;;1.50;;
47894;SDS011;33653;52.302;8.134;2023-04-25T08:20:19;8.32;;;1.92;;
47894;SDS011;33653;52.302;8.134;2023-04-25T08:22:49;7.68;;;1.60;;
47894;SDS011;33653;52.302;8.134;2023-04-25T08:25:38;3.92;;;1.75;;
47894;SDS011;33653;52.302;8.134;2023-04-25T08:28:07;3.20;;;1.48;;
47894;SDS011;33653;52.302;8.134;2023-04-25T08:30:36;3.03;;;1.55;;
47894;SDS011;33653;52.302;8.134;2023-04-25T08:33:07;9.07;;;1.42;;
47894;SDS011;33653;52.302;8.134;2023-04-25T08:35:55;3.00;;;1.15;;
47894;SDS011;33653;52.302;8.134;2023-04-25T08:38:26;2.17;;;1.10;;
47894;SDS011;33653;52.302;8.134;2023-04-25T08:40:55;3.40;;;1.52;;
47894;SDS011;33653;52.302;8.134;2023-04-25T08:43:25;3.97;;;2.08;;
47894;SDS011;33653;52.302;8.134;2023-04-25T08:45:53;6.57;;;1.50;;
47894;SDS011;33653;52.302;8.134;2023-04-25T08:48:45;4.75;;;1.17;;
47894;SDS011;33653;52.302;8.134;2023-04-25T08:51:22;1.55;;;1.20;;
47894;SDS011;33653;52.302;8.134;2023-04-25T08:53:55;4.40;;;1.40;;
47894;SDS011;33653;52.302;8.134;2023-04-25T08:56:57;2.30;;;1.13;;
47894;SDS011;33653;52.302;8.134;2023-04-25T08:59:30;3.88;;;1.40;;
47894;SDS011;33653;52.302;8.134;2023-04-25T09:02:00;4.20;;;1.20;;
47894;SDS011;33653;52.302;8.134;2023-04-25T09:04:31;1.48;;;1.15;;
47894;SDS011;33653;52.302;8.134;2023-04-25T09:06:59;1.15;;;1.05;;
47894;SDS011;33653;52.302;8.134;2023-04-25T09:09:29;3.13;;;1.70;;
47894;SDS011;33653;52.302;8.134;2023-04-25T09:11:57;10.43;;;1.42;;
47894;SDS011;33653;52.302;8.134;2023-04-25T09:14:26;2.92;;;0.90;;
47894;SDS011;33653;52.302;8.134;2023-04-25T09:17:10;2.72;;;1.48;;
47894;SDS011;33653;52.302;8.134;2023-04-25T09:19:45;8.05;;;1.27;;
47894;SDS011;33653;52.302;8.134;2023-04-25T09:22:21;3.95;;;1.10;;
47894;SDS011;33653;52.302;8.134;2023-04-25T09:24:53;5.60;;;1.30;;
47894;SDS011;33653;52.302;8.134;2023-04-25T09:27:25;2.90;;;1.15;;
47894;SDS011;33653;52.302;8.134;2023-04-25T09:30:11;6.18;;;1.73;;
47894;SDS011;33653;52.302;8.134;2023-04-25T09:33:08;2.38;;;1.33;;
47894;SDS011;33653;52.302;8.134;2023-04-25T09:35:41;2.58;;;1.33;;
47894;SDS011;33653;52.302;8.134;2023-04-25T09:38:20;3.83;;;1.45;;
47894;SDS011;33653;52.302;8.134;2023-04-25T09:40:56;1.10;;;0.93;;
47894;SDS011;33653;52.302;8.134;2023-04-25T09:43:34;5.72;;;1.40;;
47894;SDS011;33653;52.302;8.134;2023-04-25T09:46:07;1.23;;;1.00;;
47894;SDS011;33653;52.302;8.134;2023-04-25T09:48:43;10.48;;;1.23;;
47894;SDS011;33653;52.302;8.134;2023-04-25T09:51:25;5.93;;;1.27;;
47894;SDS011;33653;52.302;8.134;2023-04-25T09:53:57;5.55;;;1.10;;
47894;SDS011;33653;52.302;8.134;2023-04-25T09:56:52;2.67;;;0.82;;
47894;SDS011;33653;52.302;8.134;2023-04-25T09:59:21;5.97;;;1.45;;
47894;SDS011;33653;52.302;8.134;2023-04-25T10:01:52;1.45;;;0.98;;
47894;SDS011;33653;52.302;8.134;2023-04-25T10:04:30;2.07;;;1.20;;
47894;SDS011;33653;52.302;8.134;2023-04-25T10:07:11;5.00;;;1.50;;
47894;SDS011;33653;52.302;8.134;2023-04-25T10:09:44;6.70;;;1.45;;
47894;SDS011;33653;52.302;8.134;2023-04-25T10:12:17;4.32;;;1.65;;
47894;SDS011;33653;52.302;8.134;2023-04-25T10:14:45;2.42;;;1.17;;
47894;SDS011;33653;52.302;8.134;2023-04-25T10:17:14;4.28;;;1.45;;
47894;SDS011;33653;52.302;8.134;2023-04-25T10:19:43;2.65;;;1.15;;
47894;SDS011;33653;52.302;8.134;2023-04-25T10:22:13;4.47;;;1.50;;
47894;SDS011;33653;52.302;8.134;2023-04-25T10:24:50;1.83;;;1.08;;
47894;SDS011;33653;52.302;8.134;2023-04-25T10:27:19;1.70;;;1.13;;
47894;SDS011;33653;52.302;8.134;2023-04-25T10:30:09;4.82;;;1.30;;
47894;SDS011;33653;52.302;8.134;2023-04-25T10:32:42;3.15;;;1.30;;
47894;SDS011;33653;52.302;8.134;2023-04-25T10:35:18;2.42;;;1.27;;
47894;SDS011;33653;52.302;8.134;2023-04-25T10:38:04;9.75;;;1.30;;
47894;SDS011;33653;52.302;8.134;2023-04-25T10:40:38;6.30;;;1.38;;
47894;SDS011;33653;52.302;8.134;2023-04-25T10:46:26;5.25;;;1.55;;
47894;SDS011;33653;52.302;8.134;2023-04-25T10:48:59;4.05;;;1.15;;
47894;SDS011;33653;52.302;8.134;2023-04-25T10:54:21;1.45;;;1.27;;
47894;SDS011;33653;52.302;8.134;2023-04-25T10:56:52;2.15;;;1.25;;
47894;SDS011;33653;52.302;8.134;2023-04-25T10:59:20;2.42;;;1.02;;
47894;SDS011;33653;52.302;8.134;2023-04-25T11:01:52;3.47;;;1.20;;
47894;SDS011;33653;52.302;8.134;2023-04-25T11:04:25;3.50;;;1.08;;
47894;SDS011;33653;52.302;8.134;2023-04-25T11:09:58;2.10;;;1.00;;
47894;SDS011;33653;52.302;8.134;2023-04-25T11:12:31;4.85;;;1.45;;
47894;SDS011;33653;52.302;8.134;2023-04-25T11:15:03;0.95;;;0.75;;
47894;SDS011;33653;52.302;8.134;2023-04-25T11:17:34;1.00;;;0.90;;
47894;SDS011;33653;52.302;8.134;2023-04-25T11:20:02;2.95;;;1.50;;
47894;SDS011;33653;52.302;8.134;2023-04-25T11:22:40;5.43;;;1.30;;
47894;SDS011;33653;52.302;8.134;2023-04-25T11:25:09;1.40;;;1.08;;
47894;SDS011;33653;52.302;8.134;2023-04-25T11:30:18;2.53;;;1.00;;
47894;SDS011;33653;52.302;8.134;2023-04-25T11:32:48;2.78;;;1.10;;
47894;SDS011;33653;52.302;8.134;2023-04-25T11:35:17;2.10;;;0.95;;
47894;SDS011;33653;52.302;8.134;2023-04-25T11:37:50;2.00;;;1.17;;
47894;SDS011;33653;52.302;8.134;2023-04-25T11:40:19;3.80;;;1.40;;
47894;SDS011;33653;52.302;8.134;2023-04-25T11:42:47;1.92;;;1.13;;
47894;SDS011;33653;52.302;8.134;2023-04-25T11:45:16;2.15;;;1.30;;
47894;SDS011;33653;52.302;8.134;2023-04-25T11:48:36;2.35;;;1.30;;
47894;SDS011;33653;52.302;8.134;2023-04-25T11:51:12;4.57;;;1.33;;
47894;SDS011;33653;52.302;8.134;2023-04-25T11:53:44;2.72;;;1.25;;
47894;SDS011;33653;52.302;8.134;2023-04-25T11:56:12;2.28;;;1.20;;
47894;SDS011;33653;52.302;8.134;2023-04-25T11:58:56;4.57;;;1.40;;
47894;SDS011;33653;52.302;8.134;2023-04-25T12:01:35;6.97;;;1.45;;
47894;SDS011;33653;52.302;8.134;2023-04-25T12:04:15;3.58;;;1.10;;
47894;SDS011;33653;52.302;8.134;2023-04-25T12:06:48;3.47;;;1.40;;
47894;SDS011;33653;52.302;8.134;2023-04-25T12:09:21;3.72;;;1.20;;
47894;SDS011;33653;52.302;8.134;2023-04-25T12:11:57;2.00;;;1.10;;
47894;SDS011;33653;52.302;8.134;2023-04-25T12:14:33;1.65;;;1.00;;
47894;SDS011;33653;52.302;8.134;2023-04-25T12:17:03;1.15;;;1.02;;
47894;SDS011;33653;52.302;8.134;2023-04-25T12:19:35;2.33;;;1.13;;
47894;SDS011;33653;52.302;8.134;2023-04-25T12:22:20;2.85;;;1.30;;
47894;SDS011;33653;52.302;8.134;2023-04-25T12:24:51;3.00;;;1.33;;
47894;SDS011;33653;52.302;8.134;2023-04-25T12:27:20;1.30;;;1.17;;
47894;SDS011;33653;52.302;8.134;2023-04-25T12:29:52;5.30;;;0.90;;
47894;SDS011;33653;52.302;8.134;2023-04-25T12:32:22;1.33;;;1.10;;
47894;SDS011;33653;52.302;8.134;2023-04-25T12:34:50;1.30;;;1.10;;
47894;SDS011;33653;52.302;8.134;2023-04-25T12:37:19;1.13;;;1.02;;
47894;SDS011;33653;52.302;8.134;2023-04-25T12:39:47;1.10;;;1.02;;
47894;SDS011;33653;52.302;8.134;2023-04-25T12:42:14;2.42;;;1.52;;
47894;SDS011;33653;52.302;8.134;2023-04-25T12:44:42;4.95;;;1.10;;
47894;SDS011;33653;52.302;8.134;2023-04-25T12:47:10;1.17;;;1.00;;
47894;SDS011;33653;52.302;8.134;2023-04-25T12:49:38;1.35;;;0.93;;
47894;SDS011;33653;52.302;8.134;2023-04-25T12:52:06;1.52;;;1.20;;
47894;SDS011;33653;52.302;8.134;2023-04-25T12:54:34;1.42;;;1.02;;
47894;SDS011;33653;52.302;8.134;2023-04-25T12:57:02;4.22;;;1.10;;
47894;SDS011;33653;52.302;8.134;2023-04-25T12:59:31;1.33;;;1.02;;
47894;SDS011;33653;52.302;8.134;2023-04-25T13:01:59;6.30;;;1.52;;
47894;SDS011;33653;52.302;8.134;2023-04-25T13:04:27;2.20;;;1.20;;
47894;SDS011;33653;52.302;8.134;2023-04-25T13:06:56;1.70;;;0.93;;
47894;SDS011;33653;52.302;8.134;2023-04-25T13:09:23;2.17;;;1.10;;
47894;SDS011;33653;52.302;8.134;2023-04-25T13:11:51;1.52;;;1.23;;
47894;SDS011;33653;52.302;8.134;2023-04-25T13:14:23;1.48;;;1.17;;
47894;SDS011;33653;52.302;8.134;2023-04-25T13:16:51;2.78;;;1.27;;
47894;SDS011;33653;52.302;8.134;2023-04-25T13:19:19;3.55;;;1.10;;
47894;SDS011;33653;52.302;8.134;2023-04-25T13:21:47;1.70;;;1.10;;
47894;SDS011;33653;52.302;8.134;2023-04-25T13:24:18;2.35;;;1.00;;
47894;SDS011;33653;52.302;8.134;2023-04-25T13:26:45;2.38;;;1.10;;
47894;SDS011;33653;52.302;8.134;2023-04-25T13:29:13;2.03;;;1.00;;
47894;SDS011;33653;52.302;8.134;2023-04-25T13:31:41;6.72;;;1.13;;
47894;SDS011;33653;52.302;8.134;2023-04-25T13:34:09;2.33;;;1.05;;
47894;SDS011;33653;52.302;8.134;2023-04-25T13:36:37;3.90;;;1.00;;
47894;SDS011;33653;52.302;8.134;2023-04-25T13:39:05;3.28;;;1.30;;
47894;SDS011;33653;52.302;8.134;2023-04-25T13:41:33;2.83;;;1.40;;
47894;SDS011;33653;52.302;8.134;2023-04-25T13:44:01;2.97;;;1.10;;
47894;SDS011;33653;52.302;8.134;2023-04-25T13:46:29;4.28;;;1.15;;
47894;SDS011;33653;52.302;8.134;2023-04-25T13:49:13;2.05;;;1.20;;
47894;SDS011;33653;52.302;8.134;2023-04-25T13:51:42;1.08;;;0.90;;
47894;SDS011;33653;52.302;8.134;2023-04-25T13:54:10;2.25;;;1.10;;
47894;SDS011;33653;52.302;8.134;2023-04-25T13:56:38;8.25;;;1.58;;
47894;SDS011;33653;52.302;8.134;2023-04-25T13:59:08;4.65;;;1.35;;
47894;SDS011;33653;52.302;8.134;2023-04-25T14:01:37;4.10;;;1.30;;
47894;SDS011;33653;52.302;8.134;2023-04-25T14:04:05;2.33;;;1.30;;
47894;SDS011;33653;52.302;8.134;2023-04-25T14:06:33;1.00;;;1.00;;
47894;SDS011;33653;52.302;8.134;2023-04-25T14:09:02;2.33;;;1.30;;
47894;SDS011;33653;52.302;8.134;2023-04-25T14:11:31;2.92;;;1.00;;
47894;SDS011;33653;52.302;8.134;2023-04-25T14:13:59;1.25;;;1.10;;
47894;SDS011;33653;52.302;8.134;2023-04-25T14:16:27;0.82;;;0.82;;
47894;SDS011;33653;52.302;8.134;2023-04-25T14:18:56;1.67;;;1.02;;
47894;SDS011;33653;52.302;8.134;2023-04-25T14:23:55;3.17;;;1.10;;
47894;SDS011;33653;52.302;8.134;2023-04-25T14:26:22;1.20;;;1.00;;
47894;SDS011;33653;52.302;8.134;2023-04-25T14:28:51;2.47;;;1.30;;
47894;SDS011;33653;52.302;8.134;2023-04-25T14:31:19;2.45;;;1.02;;
47894;SDS011;33653;52.302;8.134;2023-04-25T14:33:47;1.85;;;1.20;;
47894;SDS011;33653;52.302;8.134;2023-04-25T14:36:16;1.42;;;1.10;;
47894;SDS011;33653;52.302;8.134;2023-04-25T14:38:44;4.75;;;1.17;;
47894;SDS011;33653;52.302;8.134;2023-04-25T14:41:12;2.38;;;1.42;;
47894;SDS011;33653;52.302;8.134;2023-04-25T14:43:40;2.03;;;1.00;;
47894;SDS011;33653;52.302;8.134;2023-04-25T14:46:08;1.88;;;1.30;;
47894;SDS011;33653;52.302;8.134;2023-04-25T14:48:37;4.32;;;1.27;;
47894;SDS011;33653;52.302;8.134;2023-04-25T14:51:06;2.58;;;1.30;;
47894;SDS011;33653;52.302;8.134;2023-04-25T14:53:34;1.88;;;1.20;;
47894;SDS011;33653;52.302;8.134;2023-04-25T14:56:02;4.53;;;1.50;;
47894;SDS011;33653;52.302;8.134;2023-04-25T14:58:30;2.80;;;1.10;;
47894;SDS011;33653;52.302;8.134;2023-04-25T15:00:59;3.10;;;1.25;;
47894;SDS011;33653;52.302;8.134;2023-04-25T15:03:27;3.80;;;1.38;;
47894;SDS011;33653;52.302;8.134;2023-04-25T15:05:55;1.55;;;1.00;;
47894;SDS011;33653;52.302;8.134;2023-04-25T15:08:23;2.67;;;1.20;;
47894;SDS011;33653;52.302;8.134;2023-04-25T15:10:51;2.53;;;1.10;;
47894;SDS011;33653;52.302;8.134;2023-04-25T15:13:20;4.45;;;1.00;;
47894;SDS011;33653;52.302;8.134;2023-04-25T15:15:48;1.30;;;1.05;;
47894;SDS011;33653;52.302;8.134;2023-04-25T15:18:19;1.27;;;1.08;;
47894;SDS011;33653;52.302;8.134;2023-04-25T15:20:51;3.22;;;1.35;;
47894;SDS011;33653;52.302;8.134;2023-04-25T15:23:20;1.58;;;1.20;;
47894;SDS011;33653;52.302;8.134;2023-04-25T15:25:49;1.45;;;1.27;;
47894;SDS011;33653;52.302;8.134;2023-04-25T15:28:18;1.60;;;1.17;;
47894;SDS011;33653;52.302;8.134;2023-04-25T15:30:48;2.92;;;1.33;;